Time,TemperatureF,DewpointF,PressureIn,WindDirection,WindDirectionDegrees,WindSpeedMPH,WindSpeedGustMPH,Humidity,HourlyPrecipIn,Conditions,Clouds,dailyrainin,SoftwareType,DateUTC
2013-06-16 00:13:00,73.6,46.4,30.14,WNW,291,0.0,0.0,38,0.00,CLR,,0.00,WeatherDisplay:10.37,2013-06-16 08:13:00,
2013-06-16 00:28:00,72.9,47.2,30.14,WNW,291,0.0,0.0,40,0.00,CLR,,0.00,WeatherDisplay:10.37,2013-06-16 08:28:00,
2013-06-16 00:43:00,73.0,47.2,30.14,WNW,291,0.0,0.0,40,0.00,CLR,,0.00,WeatherDisplay:10.37,2013-06-16 08:43:00,
2013-06-16 00:58:00,72.7,47.0,30.14,WNW,291,0.0,0.0,40,0.00,CLR,,0.00,WeatherDisplay:10.37,2013-06-16 08:58:00,
2013-06-16 01:13:00,72.2,47.2,30.15,WNW,291,0.0,0.0,41,0.00,CLR,,0.00,WeatherDisplay:10.37,2013-06-16 09:13:00,
2013-06-16 01:28:00,71.9,47.5,30.15,WNW,291,0.0,0.0,42,0.00,CLR,,0.00,WeatherDisplay:10.37,2013-06-16 09:28:00,
2013-06-16 01:43:00,71.8,47.4,30.15,WNW,291,0.0,0.0,42,0.00,CLR,,0.00,WeatherDisplay:10.37,2013-06-16 09:43:00,
2013-06-16 01:58:00,71.7,47.4,30.15,WNW,291,0.0,0.0,42,0.00,CLR,,0.00,WeatherDisplay:10.37,2013-06-16 09:58:00,
2013-06-16 02:28:00,72.2,47.8,30.16,WNW,291,0.0,0.0,42,0.00,CLR,,0.00,WeatherDisplay:10.37,2013-06-16 10:28:00,
2013-06-16 07:13:00,65.7,53.2,30.21,ENE,70,1.0,3.0,64,0.00,CLR,,0.00,WeatherDisplay:10.37,2013-06-16 15:13:00,
2013-06-16 07:28:00,65.8,52.9,30.21,ENE,73,3.0,5.0,63,0.00,CLR,,0.00,WeatherDisplay:10.37,2013-06-16 15:28:00,
2013-06-16 07:43:00,66.7,53.3,30.21,ENE,78,2.0,5.0,62,0.00,CLR,,0.00,WeatherDisplay:10.37,2013-06-16 15:43:00,
2013-06-16 07:58:00,67.9,54.4,30.22,NE,39,0.0,2.0,62,0.00,CLR,,0.00,WeatherDisplay:10.37,2013-06-16 15:58:00,
2013-06-16 08:13:00,68.7,54.7,30.22,East,83,0.0,4.0,61,0.00,CLR,,0.00,WeatherDisplay:10.37,2013-06-16 16:13:00,
2013-06-16 08:28:00,69.7,55.6,30.22,SW,219,2.0,3.0,61,0.00,CLR,,0.00,WeatherDisplay:10.37,2013-06-16 16:28:00,
2013-06-16 08:43:00,69.2,55.2,30.22,WSW,256,1.0,3.0,61,0.00,CLR,,0.00,WeatherDisplay:10.37,2013-06-16 16:43:00,
2013-06-16 08:58:00,69.6,55.1,30.22,WSW,243,0.0,2.0,60,0.00,CLR,,0.00,WeatherDisplay:10.37,2013-06-16 16:58:00,
2013-06-16 09:13:00,70.5,55.0,30.22,SW,232,2.0,5.0,58,0.00,CLR,,0.00,WeatherDisplay:10.37,2013-06-16 17:13:00,
2013-06-16 09:28:00,71.2,55.6,30.23,SW,218,1.0,5.0,58,0.00,CLR,,0.00,WeatherDisplay:10.37,2013-06-16 17:28:00,
2013-06-16 09:43:00,71.5,55.0,30.23,SW,233,1.0,5.0,56,0.00,CLR,,0.00,WeatherDisplay:10.37,2013-06-16 17:43:00,
2013-06-16 09:58:00,71.6,55.1,30.23,SW,220,2.0,4.0,56,0.00,CLR,,0.00,WeatherDisplay:10.37,2013-06-16 17:58:00,
2013-06-16 10:13:00,71.9,54.9,30.23,West,267,5.0,7.0,55,0.00,CLR,,0.00,WeatherDisplay:10.37,2013-06-16 18:13:00,
2013-06-16 10:28:00,72.6,54.4,30.23,WSW,250,3.0,7.0,53,0.00,CLR,,0.00,WeatherDisplay:10.37,2013-06-16 18:28:00,
2013-06-16 10:43:00,73.2,54.6,30.23,West,263,5.0,7.0,52,0.00,CLR,,0.00,WeatherDisplay:10.37,2013-06-16 18:43:00,
2013-06-16 10:58:00,74.1,54.8,30.22,WSW,251,3.0,8.0,51,0.00,CLR,,0.00,WeatherDisplay:10.37,2013-06-16 18:58:00,
2013-06-16 11:13:00,75.3,54.3,30.22,West,263,0.0,7.0,48,0.00,CLR,,0.00,WeatherDisplay:10.37,2013-06-16 19:13:00,
2013-06-16 11:28:00,75.9,54.8,30.22,South,185,2.0,8.0,48,0.00,CLR,,0.00,WeatherDisplay:10.37,2013-06-16 19:28:00,
2013-06-16 11:43:00,76.2,54.5,30.21,SW,220,5.0,9.0,47,0.00,CLR,,0.00,WeatherDisplay:10.37,2013-06-16 19:43:00,
2013-06-16 11:58:00,76.8,53.9,30.21,West,267,6.0,10.0,45,0.00,CLR,,0.00,WeatherDisplay:10.37,2013-06-16 19:58:00,
2013-06-16 12:28:00,76.8,53.2,30.21,West,271,7.0,11.0,44,0.00,CLR,,0.00,WeatherDisplay:10.37,2013-06-16 20:28:00,
2013-06-16 12:43:00,76.8,53.2,30.21,West,270,3.0,8.0,44,0.00,CLR,,0.00,WeatherDisplay:10.37,2013-06-16 20:43:00,
2013-06-16 12:58:00,76.8,53.2,30.20,WNW,283,5.0,9.0,44,0.00,CLR,,0.00,WeatherDisplay:10.37,2013-06-16 20:58:00,
2013-06-16 13:13:00,76.8,53.2,30.20,WNW,285,3.0,9.0,44,0.00,CLR,,0.00,WeatherDisplay:10.37,2013-06-16 21:13:00,
2013-06-16 13:28:00,76.8,53.2,30.20,WNW,288,5.0,10.0,44,0.00,CLR,,0.00,WeatherDisplay:10.37,2013-06-16 21:28:00,
2013-06-16 13:43:00,76.8,52.6,30.20,WNW,284,5.0,9.0,43,0.00,CLR,,0.00,WeatherDisplay:10.37,2013-06-16 21:43:00,
2013-06-16 13:58:00,76.8,52.0,30.20,West,276,3.0,9.0,42,0.00,CLR,,0.00,WeatherDisplay:10.37,2013-06-16 21:58:00,
2013-06-16 14:13:00,76.8,51.3,30.19,West,268,5.0,10.0,41,0.00,CLR,,0.00,WeatherDisplay:10.37,2013-06-16 22:13:00,
2013-06-16 14:28:00,76.8,51.3,30.19,WNW,284,6.0,10.0,41,0.00,CLR,,0.00,WeatherDisplay:10.37,2013-06-16 22:28:00,
2013-06-16 14:43:00,76.8,52.0,30.19,WNW,289,5.0,9.0,42,0.00,CLR,,0.00,WeatherDisplay:10.37,2013-06-16 22:43:00,
2013-06-16 14:58:00,76.8,52.0,30.19,West,259,6.0,8.0,42,0.00,CLR,,0.00,WeatherDisplay:10.37,2013-06-16 22:58:00,
2013-06-16 15:13:00,76.8,50.7,30.18,NW,306,5.0,10.0,40,0.00,CLR,,0.00,WeatherDisplay:10.37,2013-06-16 23:13:00,
2013-06-16 15:28:00,76.8,48.6,30.18,West,264,5.0,10.0,37,0.00,CLR,,0.00,WeatherDisplay:10.37,2013-06-16 23:28:00,
2013-06-16 15:43:00,76.8,47.8,30.17,West,271,2.0,12.0,36,0.00,CLR,,0.00,WeatherDisplay:10.37,2013-06-16 23:43:00,
2013-06-16 15:58:00,76.8,47.8,30.17,WNW,291,1.0,8.0,36,0.00,CLR,,0.00,WeatherDisplay:10.37,2013-06-16 23:58:00,
2013-06-16 16:13:00,76.8,47.1,30.17,NW,314,3.0,9.0,35,0.00,CLR,,0.00,WeatherDisplay:10.37,2013-06-17 00:13:00,
2013-06-16 16:28:00,76.8,47.8,30.16,West,263,6.0,12.0,36,0.00,CLR,,0.00,WeatherDisplay:10.37,2013-06-17 00:28:00,
2013-06-16 16:43:00,76.8,46.3,30.15,West,264,6.0,10.0,34,0.00,CLR,,0.00,WeatherDisplay:10.37,2013-06-17 00:43:00,
2013-06-16 16:58:00,76.8,46.3,30.15,West,261,3.0,10.0,34,0.00,CLR,,0.00,WeatherDisplay:10.37,2013-06-17 00:58:00,
2013-06-16 17:13:00,76.8,47.1,30.15,WNW,289,7.0,13.0,35,0.00,CLR,,0.00,WeatherDisplay:10.37,2013-06-17 01:13:00,
2013-06-16 17:28:00,76.8,46.3,30.14,WNW,282,5.0,10.0,34,0.00,CLR,,0.00,WeatherDisplay:10.37,2013-06-17 01:28:00,
2013-06-16 17:43:00,76.8,46.3,30.14,West,278,7.0,13.0,34,0.00,CLR,,0.00,WeatherDisplay:10.37,2013-06-17 01:43:00,
2013-06-16 17:58:00,76.8,46.3,30.13,West,281,8.0,15.0,34,0.00,CLR,,0.00,WeatherDisplay:10.37,2013-06-17 01:58:00,
2013-06-16 18:13:00,76.8,46.3,30.13,NW,309,2.0,11.0,34,0.00,CLR,,0.00,WeatherDisplay:10.37,2013-06-17 02:13:00,
2013-06-16 18:28:00,76.8,45.5,30.12,WNW,285,5.0,15.0,33,0.00,CLR,,0.00,WeatherDisplay:10.37,2013-06-17 02:28:00,
2013-06-16 18:43:00,76.8,46.3,30.12,NW,308,6.0,14.0,34,0.00,CLR,,0.00,WeatherDisplay:10.37,2013-06-17 02:43:00,
2013-06-16 18:58:00,76.8,47.1,30.12,West,278,1.0,9.0,35,0.00,CLR,,0.00,WeatherDisplay:10.37,2013-06-17 02:58:00,
2013-06-16 19:13:00,76.8,46.3,30.11,WNW,303,5.0,12.0,34,0.00,CLR,,0.00,WeatherDisplay:10.37,2013-06-17 03:13:00,